Terminal Aerodrome Forecast
Issued by NWS

Home | Current Version | Previous Version | Text Only | Print | Product List | Glossary On
Versions: 1 2 3 4 5 6 7 8 9 10 11 12 13 14 15 16
754
FTUS42 KTBW 221740
TAFPGD
TAF
KPGD 221740Z 2218/2318 15013G20KT P6SM VCSH SCT025 BKN110
     FM222300 25006KT P6SM VCSH SCT030 BKN080
     FM230000 28007KT P6SM BKN110
     FM230300 VRB03KT P6SM BKN120=

USA.gov is the U.S. government's official web portal to all federal, state and local government web resources and services.